Aviation Digital Data Service (ADDS)

Output produced by METARs form (0242 UTC 22 April 2019)
found at http://www.aviationweather.gov/metar/data/
 
Forecast for: VOTV (THIRUVANANTHAPUR, IN)
Text: TAF VOTV 220200Z 2203/2212 30010KT 4000 HZ SCT015 FEW025CB BKN080
Forecast period: 0300 to 0400 UTC 22 April 2019
Forecast type: FROM: standard forecast or significant change
Winds: from the WNW (300 degrees) at 12 MPH (10 knots; 5.1 m/s)
Visibility: 2.49 miles (4.01 km)
Ceiling: 8000 feet AGL
Clouds: scattered clouds at 1500 feet AGL
few clouds at 2500 feet AGL
broken clouds at 8000 feet AGL
Weather: HZ  (haze)
Text: BECMG 2204/2205 6000
Forecast period: 0400 to 0800 UTC 22 April 2019
Forecast type: BECOMING: Conditions expected to become as follows by 0500 UTC 22 April 2019
Winds: from the WNW (300 degrees) at 12 MPH (10 knots; 5.1 m/s)
Visibility: 4 miles (6 km)
Ceiling: 8000 feet AGL
Clouds: scattered clouds at 1500 feet AGL
few clouds at 2500 feet AGL
broken clouds at 8000 feet AGL
Weather: HZ  (haze)
Text: TEMPO
Forecast period: 0800 to 1200 UTC 22 April 2019
Forecast type: BECOMING: Conditions expected to become as follows by 1200 UTC 22 April 2019
Winds: from the WNW (300 degrees) at 12 MPH (10 knots; 5.1 m/s)
gusting to 23 MPH (20 knots; 10.3 m/s)
Visibility: 1.24 miles (2.00 km)
Ceiling: 8000 feet AGL
Clouds: scattered clouds at 1000 feet AGL
few clouds at 2500 feet AGL
broken clouds at 8000 feet AGL
Weather: TSRA RA  (rain associated with thunderstorm(s), moderate rain)